Time;durP1;ratioP1;P1;durP2;ratioP2;P2;SDS_P1;SDS_P2;PMS_P1;PMS_P2;Temp;Humidity;BMP_temperature;BMP_pressure;BME280_temperature;BME280_humidity;BME280_pressure;Samples;Min_cycle;Max_cycle;Signal;HPM_P1;HPM_P2
2022/08/02 00:02:18;;;;;;;10.45;9.68;;;;;;;;;;5043119;28;20033;-74
2022/08/02 00:04:45;;;;;;;10.70;9.85;;;;;;;;;;5045806;28;20064;-74
2022/08/02 00:07:11;;;;;;;10.73;10.02;;;;;;;;;;5042625;28;20807;-74
2022/08/02 00:09:36;;;;;;;10.25;9.55;;;;;;;;;;5043756;28;20032;-74
2022/08/02 00:12:02;;;;;;;10.98;10.07;;;;;;;;;;5049305;28;20033;-74
2022/08/02 00:14:28;;;;;;;11.30;10.50;;;;;;;;;;5051295;28;20071;-74
2022/08/02 00:16:53;;;;;;;10.90;10.20;;;;;;;;;;5030703;28;20060;-74
2022/08/02 00:19:19;;;;;;;11.43;10.40;;;;;;;;;;5030051;28;20070;-74
2022/08/02 00:21:45;;;;;;;11.27;10.48;;;;;;;;;;5033152;28;20037;-74
2022/08/02 00:24:10;;;;;;;10.93;10.15;;;;;;;;;;5029446;28;20049;-74
2022/08/02 00:26:36;;;;;;;10.85;9.93;;;;;;;;;;5029891;28;20326;-74
2022/08/02 00:29:02;;;;;;;11.48;10.60;;;;;;;;;;5047776;28;20033;-74
2022/08/02 00:31:28;;;;;;;11.45;10.55;;;;;;;;;;5049716;28;20035;-74
2022/08/02 00:33:54;;;;;;;11.70;10.70;;;;;;;;;;5049457;28;20037;-74
2022/08/02 00:36:19;;;;;;;11.02;10.32;;;;;;;;;;5028624;28;20036;-74
2022/08/02 00:38:46;;;;;;;12.05;11.25;;;;;;;;;;5049978;28;20032;-74
2022/08/02 00:41:16;;;;;;;12.15;11.20;;;;;;;;;;5049602;28;20480;-74
2022/08/02 00:43:42;;;;;;;;;;;;;;;;;;5050580;28;20048;-74
2022/08/02 00:46:08;;;;;;;12.30;11.20;;;;;;;;;;5028540;28;19917;-74
2022/08/02 00:48:33;;;;;;;12.50;11.45;;;;;;;;;;5049152;28;20082;-74
2022/08/02 00:50:59;;;;;;;12.55;11.57;;;;;;;;;;5046893;28;20029;-74
2022/08/02 00:53:25;;;;;;;13.95;12.75;;;;;;;;;;5049555;28;20029;-74
2022/08/02 00:55:50;;;;;;;12.80;11.85;;;;;;;;;;5044046;28;20049;-74
2022/08/02 00:58:16;;;;;;;14.32;13.05;;;;;;;;;;5048772;28;20033;-74
2022/08/02 01:00:42;;;;;;;21.23;12.27;;;;;;;;;;5027565;28;20045;-74
2022/08/02 01:03:07;;;;;;;57.80;13.20;;;;;;;;;;5027624;28;20183;-74
2022/08/02 01:05:33;;;;;;;13.32;11.60;;;;;;;;;;5049390;28;20086;-74
2022/08/02 01:07:59;;;;;;;13.27;12.13;;;;;;;;;;5046970;28;20035;-74
2022/08/02 01:10:24;;;;;;;13.07;12.07;;;;;;;;;;5047939;28;20037;-74
2022/08/02 01:12:50;;;;;;;11.90;10.90;;;;;;;;;;5048361;28;20033;-74
2022/08/02 01:15:16;;;;;;;12.43;11.23;;;;;;;;;;5046010;28;20138;-74
2022/08/02 01:17:59;;;;;;;12.18;11.27;;;;;;;;;;5035389;28;20093;-74
2022/08/02 01:20:55;;;;;;;11.85;11.05;;;;;;;;;;5042309;28;20033;-74
2022/08/02 01:23:52;;;;;;;12.43;11.25;;;;;;;;;;5045750;28;20036;-74
2022/08/02 01:26:42;;;;;;;13.27;11.63;;;;;;;;;;5021813;28;20041;-74
2022/08/02 01:29:33;;;;;;;12.35;11.32;;;;;;;;;;5044142;28;20043;-74
2022/08/02 01:32:06;;;;;;;13.45;11.77;;;;;;;;;;5049724;28;20554;-74
2022/08/02 01:34:41;;;;;;;12.00;11.10;;;;;;;;;;5047910;28;20040;-74
2022/08/02 01:37:27;;;;;;;12.48;11.48;;;;;;;;;;5044943;28;20043;-74
2022/08/02 01:40:08;;;;;;;12.40;11.32;;;;;;;;;;5046368;28;20036;-74
2022/08/02 01:42:37;;;;;;;12.38;11.35;;;;;;;;;;5033142;28;20043;-73
2022/08/02 01:45:03;;;;;;;;;;;;;;;;;;5045756;28;20677;-74
2022/08/02 01:47:32;;;;;;;12.50;11.02;;;;;;;;;;5045221;28;19913;-74
2022/08/02 01:50:00;;;;;;;12.35;11.32;;;;;;;;;;5030035;28;20054;-74
2022/08/02 01:52:32;;;;;;;12.20;11.20;;;;;;;;;;5048027;28;20519;-74
2022/08/02 01:55:12;;;;;;;11.95;10.95;;;;;;;;;;5044426;28;20771;-74
2022/08/02 01:57:51;;;;;;;12.43;11.32;;;;;;;;;;5028210;28;20033;-73
2022/08/02 02:00:18;;;;;;;;;;;;;;;;;;5045235;28;20029;-73
2022/08/02 02:02:46;;;;;;;13.27;12.00;;;;;;;;;;5045570;28;19923;-73
2022/08/02 02:05:15;;;;;;;14.55;12.98;;;;;;;;;;5045912;28;20029;-73
2022/08/02 02:07:43;;;;;;;14.30;13.00;;;;;;;;;;5043411;28;20033;-74
2022/08/02 02:10:13;;;;;;;13.98;12.43;;;;;;;;;;5047759;28;20025;-73
2022/08/02 02:12:39;;;;;;;13.15;11.88;;;;;;;;;;5044522;28;20055;-74
2022/08/02 02:15:10;;;;;;;13.73;12.52;;;;;;;;;;5046075;28;20029;-74
2022/08/02 02:17:38;;;;;;;14.15;12.77;;;;;;;;;;5030615;28;20226;-74
2022/08/02 02:20:05;;;;;;;13.13;12.13;;;;;;;;;;5047097;28;20149;-74
2022/08/02 02:22:31;;;;;;;14.85;12.93;;;;;;;;;;5044546;28;20033;-74
2022/08/02 02:24:57;;;;;;;15.27;13.50;;;;;;;;;;5047603;28;20107;-74
2022/08/02 02:27:23;;;;;;;14.77;13.15;;;;;;;;;;5047945;28;20025;-73
2022/08/02 02:29:52;;;;;;;14.30;13.10;;;;;;;;;;5033205;28;20040;-73
2022/08/02 02:32:20;;;;;;;14.23;12.95;;;;;;;;;;5045466;28;20397;-74
2022/08/02 02:34:47;;;;;;;15.05;13.68;;;;;;;;;;5042165;28;20036;-74
2022/08/02 02:37:18;;;;;;;17.10;13.93;;;;;;;;;;5047008;28;20131;-74
2022/08/02 02:39:45;;;;;;;191.73;18.92;;;;;;;;;;5044661;28;20033;-74
2022/08/02 02:42:14;;;;;;;15.05;13.55;;;;;;;;;;5051124;28;20045;-74
2022/08/02 02:44:40;;;;;;;15.00;13.45;;;;;;;;;;5053286;28;20091;-74
2022/08/02 02:47:07;;;;;;;15.20;13.85;;;;;;;;;;5038267;28;20079;-74
2022/08/02 02:49:34;;;;;;;15.50;13.73;;;;;;;;;;5027395;28;20522;-74
2022/08/02 02:52:02;;;;;;;14.57;13.15;;;;;;;;;;5029036;28;20029;-74
2022/08/02 02:54:30;;;;;;;15.05;13.52;;;;;;;;;;5045980;28;20028;-74
2022/08/02 02:56:57;;;;;;;15.10;13.70;;;;;;;;;;5042037;28;20028;-74
2022/08/02 02:59:23;;;;;;;15.82;13.93;;;;;;;;;;5045853;28;20060;-74
2022/08/02 03:01:50;;;;;;;16.23;14.63;;;;;;;;;;5045368;28;20056;-74
2022/08/02 03:04:16;;;;;;;16.15;13.65;;;;;;;;;;5041674;28;20033;-74
2022/08/02 03:06:42;;;;;;;17.90;14.65;;;;;;;;;;5039242;28;20047;-74
2022/08/02 03:09:08;;;;;;;15.45;14.05;;;;;;;;;;5046959;28;20116;-74
2022/08/02 03:11:35;;;;;;;14.77;13.48;;;;;;;;;;5043951;28;20075;-74
2022/08/02 03:14:03;;;;;;;14.20;13.00;;;;;;;;;;5028693;28;20036;-74
2022/08/02 03:16:28;;;;;;;14.23;12.80;;;;;;;;;;5045623;28;20133;-74
2022/08/02 03:18:56;;;;;;;13.82;12.65;;;;;;;;;;5042575;28;20410;-74
2022/08/02 03:21:22;;;;;;;14.05;12.85;;;;;;;;;;5050657;28;20052;-74
2022/08/02 03:23:48;;;;;;;14.07;12.77;;;;;;;;;;5011881;28;20040;-74
2022/08/02 03:26:14;;;;;;;14.05;12.75;;;;;;;;;;5027313;28;20040;-74
2022/08/02 03:28:40;;;;;;;14.48;13.27;;;;;;;;;;5045671;28;20051;-74
2022/08/02 03:31:06;;;;;;;13.75;12.65;;;;;;;;;;5047743;28;20037;-74
2022/08/02 03:33:33;;;;;;;14.48;13.10;;;;;;;;;;5024410;28;20120;-74
2022/08/02 03:36:11;;;;;;;13.23;12.13;;;;;;;;;;5046048;28;20393;-74
2022/08/02 03:38:37;;;;;;;14.13;12.93;;;;;;;;;;5026399;28;20032;-74
2022/08/02 03:41:04;;;;;;;14.45;13.25;;;;;;;;;;5043451;28;21029;-74
2022/08/02 03:43:30;;;;;;;14.32;12.98;;;;;;;;;;5043772;28;20112;-74
2022/08/02 03:45:57;;;;;;;15.52;13.88;;;;;;;;;;5043488;28;20112;-74
2022/08/02 03:48:26;;;;;;;14.07;12.88;;;;;;;;;;5042317;28;20029;-74
2022/08/02 03:50:51;;;;;;;14.63;13.33;;;;;;;;;;5030632;28;20040;-74
2022/08/02 03:53:17;;;;;;;16.67;15.00;;;;;;;;;;5043328;28;20299;-74
2022/08/02 03:55:43;;;;;;;16.08;14.38;;;;;;;;;;5040463;28;20087;-74
2022/08/02 03:58:16;;;;;;;18.73;14.02;;;;;;;;;;5046227;28;20036;-74
2022/08/02 04:00:42;;;;;;;14.77;13.48;;;;;;;;;;5022001;28;20134;-74
2022/08/02 04:03:07;;;;;;;17.98;13.98;;;;;;;;;;5028540;28;20120;-74
2022/08/02 04:05:33;;;;;;;14.82;13.45;;;;;;;;;;5045821;28;20112;-74
2022/08/02 04:07:59;;;;;;;14.55;12.77;;;;;;;;;;5017575;28;20049;-74
2022/08/02 04:10:25;;;;;;;13.88;12.55;;;;;;;;;;5042731;28;20033;-74
2022/08/02 04:12:50;;;;;;;14.35;13.05;;;;;;;;;;5047856;28;20143;-74
2022/08/02 04:15:17;;;;;;;14.77;13.38;;;;;;;;;;5041289;28;20045;-74
2022/08/02 04:17:48;;;;;;;14.25;13.00;;;;;;;;;;5026870;28;20553;-74
2022/08/02 04:20:19;;;;;;;14.65;13.13;;;;;;;;;;5044509;28;20037;-74
2022/08/02 04:22:49;;;;;;;14.73;13.43;;;;;;;;;;5045717;28;20045;-74
2022/08/02 04:25:15;;;;;;;14.75;13.25;;;;;;;;;;5044368;28;20637;-74
2022/08/02 04:27:42;;;;;;;15.52;13.65;;;;;;;;;;5044241;28;20737;-74
2022/08/02 04:30:08;;;;;;;15.23;13.63;;;;;;;;;;5041376;28;20190;-74
2022/08/02 04:32:34;;;;;;;14.38;13.15;;;;;;;;;;5028803;28;20045;-74
2022/08/02 04:35:00;;;;;;;15.38;13.82;;;;;;;;;;5043796;28;20484;-74
2022/08/02 04:37:26;;;;;;;14.40;12.88;;;;;;;;;;5029567;28;20044;-74
2022/08/02 04:39:52;;;;;;;14.35;13.25;;;;;;;;;;5036202;28;20029;-74
2022/08/02 04:42:22;;;;;;;14.70;13.32;;;;;;;;;;5044345;28;20056;-74
2022/08/02 04:44:49;;;;;;;15.55;13.13;;;;;;;;;;5044163;28;20434;-74
2022/08/02 04:47:15;;;;;;;15.10;13.30;;;;;;;;;;5028404;28;20087;-74
2022/08/02 04:49:40;;;;;;;15.05;13.48;;;;;;;;;;5046611;28;20067;-74
2022/08/02 04:52:06;;;;;;;14.80;13.43;;;;;;;;;;5045875;28;20041;-77
2022/08/02 04:54:32;;;;;;;14.25;13.05;;;;;;;;;;5030307;28;20116;-76
2022/08/02 04:56:57;;;;;;;14.48;13.13;;;;;;;;;;5055242;28;20111;-76
2022/08/02 04:59:23;;;;;;;14.25;13.00;;;;;;;;;;5040315;28;20033;-77
2022/08/02 05:01:49;;;;;;;15.45;13.90;;;;;;;;;;5050265;28;20047;-76
2022/08/02 05:04:14;;;;;;;16.73;13.02;;;;;;;;;;5034607;28;20484;-76
2022/08/02 05:06:40;;;;;;;15.55;13.50;;;;;;;;;;5055783;28;20036;-76
2022/08/02 05:09:05;;;;;;;14.63;13.23;;;;;;;;;;5033836;28;20033;-75
2022/08/02 05:11:31;;;;;;;15.07;13.43;;;;;;;;;;5052642;28;20029;-77
2022/08/02 05:13:57;;;;;;;15.45;13.80;;;;;;;;;;5034206;28;20491;-77
2022/08/02 05:16:24;;;;;;;15.50;14.10;;;;;;;;;;5035910;28;20037;-76
2022/08/02 05:18:50;;;;;;;15.40;13.82;;;;;;;;;;5046555;28;20051;-76
2022/08/02 05:21:16;;;;;;;14.70;13.50;;;;;;;;;;5037424;28;20142;-76
2022/08/02 05:23:42;;;;;;;15.00;13.48;;;;;;;;;;5049505;28;20048;-76
2022/08/02 05:26:07;;;;;;;14.95;13.50;;;;;;;;;;5051425;28;20060;-76
2022/08/02 05:28:33;;;;;;;15.50;13.90;;;;;;;;;;5034346;28;20028;-76
2022/08/02 05:30:59;;;;;;;14.70;13.40;;;;;;;;;;5037840;28;20215;-76
2022/08/02 05:33:25;;;;;;;13.88;12.73;;;;;;;;;;5045059;28;20034;-76
2022/08/02 05:35:50;;;;;;;14.23;13.02;;;;;;;;;;5036033;28;20041;-76
2022/08/02 05:38:16;;;;;;;13.98;12.77;;;;;;;;;;5029455;28;20124;-76
2022/08/02 05:40:42;;;;;;;13.68;12.57;;;;;;;;;;5033308;28;20048;-76
2022/08/02 05:43:12;;;;;;;13.20;12.13;;;;;;;;;;5032219;28;20409;-76
2022/08/02 05:45:38;;;;;;;13.90;12.68;;;;;;;;;;5044808;28;20143;-76
2022/08/02 05:48:04;;;;;;;13.68;12.50;;;;;;;;;;5034287;28;20726;-76
2022/08/02 05:50:31;;;;;;;13.02;12.02;;;;;;;;;;5031826;28;20397;-75
2022/08/02 05:53:09;;;;;;;14.32;13.10;;;;;;;;;;5034788;28;20037;-76
2022/08/02 05:55:41;;;;;;;13.40;12.27;;;;;;;;;;5035972;28;20106;-76
2022/08/02 05:58:13;;;;;;;14.77;13.10;;;;;;;;;;5035021;28;20048;-76
2022/08/02 06:00:40;;;;;;;13.38;12.32;;;;;;;;;;5032369;28;20056;-75
2022/08/02 06:03:24;;;;;;;13.13;12.18;;;;;;;;;;5039699;28;20045;-75
2022/08/02 06:06:03;;;;;;;13.00;11.90;;;;;;;;;;5036368;28;20044;-76
2022/08/02 06:08:37;;;;;;;12.82;11.90;;;;;;;;;;5037415;28;20037;-76
2022/08/02 06:11:05;;;;;;;12.73;11.63;;;;;;;;;;5038179;28;20411;-76
2022/08/02 06:13:32;;;;;;;12.18;11.38;;;;;;;;;;5022180;28;20040;-76
2022/08/02 06:15:58;;;;;;;12.57;11.55;;;;;;;;;;5049024;28;20044;-76
2022/08/02 06:18:28;;;;;;;12.25;11.35;;;;;;;;;;5015945;28;20512;-76
2022/08/02 06:20:59;;;;;;;11.68;10.75;;;;;;;;;;5058067;28;20036;-76
2022/08/02 06:23:25;;;;;;;12.05;11.02;;;;;;;;;;5049870;28;20045;-76
2022/08/02 06:25:52;;;;;;;11.52;10.60;;;;;;;;;;5037702;28;20041;-76
2022/08/02 06:28:19;;;;;;;12.20;11.40;;;;;;;;;;5038669;28;20035;-76
2022/08/02 06:30:45;;;;;;;11.63;10.82;;;;;;;;;;5038519;28;20056;-75
2022/08/02 06:33:11;;;;;;;11.88;11.00;;;;;;;;;;5052062;28;20037;-76
2022/08/02 06:35:55;;;;;;;12.52;11.70;;;;;;;;;;5037285;28;20059;-76
2022/08/02 06:38:25;;;;;;;12.02;11.23;;;;;;;;;;5034901;28;20072;-76
2022/08/02 06:41:03;;;;;;;12.23;11.27;;;;;;;;;;5035924;28;20037;-76
2022/08/02 06:43:37;;;;;;;11.52;10.77;;;;;;;;;;5036678;28;20079;-76
2022/08/02 06:46:02;;;;;;;11.38;10.55;;;;;;;;;;5056606;28;20040;-76
2022/08/02 06:48:29;;;;;;;11.38;10.38;;;;;;;;;;5039779;28;20086;-76
2022/08/02 06:50:55;;;;;;;10.50;9.70;;;;;;;;;;5033853;28;20131;-76
2022/08/02 06:53:21;;;;;;;11.32;10.48;;;;;;;;;;5041780;28;20068;-76
2022/08/02 06:55:46;;;;;;;11.50;10.27;;;;;;;;;;5038983;28;20033;-76
2022/08/02 06:58:13;;;;;;;10.60;9.90;;;;;;;;;;5041909;28;20025;-76
2022/08/02 07:00:40;;;;;;;10.57;9.80;;;;;;;;;;5012826;28;20034;-76
2022/08/02 07:03:06;;;;;;;10.20;9.40;;;;;;;;;;5035974;28;20389;-76
2022/08/02 07:05:32;;;;;;;10.05;9.27;;;;;;;;;;5050972;28;20040;-76
2022/08/02 07:07:57;;;;;;;11.75;10.05;;;;;;;;;;5017663;28;20515;-76
2022/08/02 07:10:23;;;;;;;10.30;9.38;;;;;;;;;;5034171;28;20041;-76
2022/08/02 07:12:48;;;;;;;9.98;9.00;;;;;;;;;;5055590;28;20048;-76
2022/08/02 07:15:15;;;;;;;10.43;9.48;;;;;;;;;;5032612;28;20057;-76
2022/08/02 07:17:40;;;;;;;13.55;9.18;;;;;;;;;;5033585;28;20068;-76
2022/08/02 07:20:08;;;;;;;9.98;9.13;;;;;;;;;;5032203;28;20032;-76
2022/08/02 07:22:34;;;;;;;10.02;9.23;;;;;;;;;;5022346;28;20048;-76
2022/08/02 07:25:01;;;;;;;10.57;9.70;;;;;;;;;;5033472;28;20037;-76
2022/08/02 07:27:27;;;;;;;10.32;9.40;;;;;;;;;;5032321;28;20037;-76
2022/08/02 07:29:54;;;;;;;11.02;9.95;;;;;;;;;;5039987;28;20186;-75
2022/08/02 07:32:22;;;;;;;9.70;8.90;;;;;;;;;;5015954;28;20040;-75
2022/08/02 07:34:48;;;;;;;10.55;9.70;;;;;;;;;;5052605;28;20037;-75
2022/08/02 07:37:14;;;;;;;11.20;10.35;;;;;;;;;;5031988;28;20041;-75
2022/08/02 07:39:39;;;;;;;10.10;9.40;;;;;;;;;;5039177;28;20064;-75
2022/08/02 07:42:05;;;;;;;10.38;9.48;;;;;;;;;;5041121;28;20403;-76
2022/08/02 07:44:33;;;;;;;10.10;9.30;;;;;;;;;;5046665;28;20037;-76
2022/08/02 07:47:03;;;;;;;11.20;10.03;;;;;;;;;;5027489;28;20037;-76
2022/08/02 07:49:29;;;;;;;9.60;8.98;;;;;;;;;;5050836;28;20059;-76
2022/08/02 07:51:56;;;;;;;10.07;9.25;;;;;;;;;;5021662;28;20120;-76
2022/08/02 07:54:22;;;;;;;10.02;9.13;;;;;;;;;;5047005;28;20040;-76
2022/08/02 07:56:48;;;;;;;10.68;9.88;;;;;;;;;;5046189;28;20040;-77
2022/08/02 07:59:13;;;;;;;10.00;9.15;;;;;;;;;;5048540;28;20017;-76
2022/08/02 08:01:40;;;;;;;10.30;9.60;;;;;;;;;;5044444;28;20044;-76
2022/08/02 08:04:06;;;;;;;11.32;10.30;;;;;;;;;;5043035;28;20040;-76
2022/08/02 08:06:31;;;;;;;11.43;10.25;;;;;;;;;;5026755;28;20590;-76
2022/08/02 08:08:58;;;;;;;11.05;9.95;;;;;;;;;;5041330;28;20468;-77
2022/08/02 08:11:23;;;;;;;11.30;10.20;;;;;;;;;;5045602;28;20510;-78
2022/08/02 08:13:49;;;;;;;10.40;9.48;;;;;;;;;;5045082;28;20065;-77
2022/08/02 08:16:16;;;;;;;11.20;10.27;;;;;;;;;;5042839;28;20040;-78
2022/08/02 08:18:42;;;;;;;10.77;9.77;;;;;;;;;;5015589;28;20063;-78
2022/08/02 08:21:08;;;;;;;11.02;10.05;;;;;;;;;;5032876;28;20060;-78
2022/08/02 08:23:35;;;;;;;10.32;9.52;;;;;;;;;;5028818;28;20037;-77
2022/08/02 08:26:01;;;;;;;10.27;9.38;;;;;;;;;;5043814;28;20064;-78
2022/08/02 08:28:27;;;;;;;10.20;9.30;;;;;;;;;;5006530;28;20030;-77
2022/08/02 08:30:54;;;;;;;9.70;8.90;;;;;;;;;;5047627;28;20098;-78
2022/08/02 08:33:22;;;;;;;11.07;9.68;;;;;;;;;;5014222;28;20061;-77
2022/08/02 08:35:48;;;;;;;9.95;9.07;;;;;;;;;;5049809;28;20068;-77
2022/08/02 08:38:14;;;;;;;11.10;9.55;;;;;;;;;;5000261;28;20029;-77
2022/08/02 08:40:41;;;;;;;11.88;9.65;;;;;;;;;;5030276;28;20045;-77
2022/08/02 08:43:08;;;;;;;10.68;9.57;;;;;;;;;;5014981;28;20127;-78
2022/08/02 08:45:37;;;;;;;12.52;9.43;;;;;;;;;;5030711;28;20075;-77
2022/08/02 08:48:14;;;;;;;10.18;9.38;;;;;;;;;;5050833;28;20043;-77
2022/08/02 08:50:55;;;;;;;11.07;9.90;;;;;;;;;;5044325;28;20057;-77
2022/08/02 08:53:23;;;;;;;9.65;8.85;;;;;;;;;;5030588;28;20072;-78
2022/08/02 08:55:52;;;;;;;8.77;8.05;;;;;;;;;;5049782;28;20115;-78
2022/08/02 08:58:17;;;;;;;8.80;8.00;;;;;;;;;;5049447;28;20037;-79
2022/08/02 09:00:43;;;;;;;8.15;7.55;;;;;;;;;;5030842;28;20051;-78
2022/08/02 09:03:09;;;;;;;9.68;8.82;;;;;;;;;;5049455;28;20035;-77
2022/08/02 09:05:40;;;;;;;8.57;7.88;;;;;;;;;;5032658;28;20047;-77
2022/08/02 09:08:07;;;;;;;9.95;9.00;;;;;;;;;;5046986;28;20151;-78
2022/08/02 09:10:47;;;;;;;10.27;9.10;;;;;;;;;;5031879;28;20826;-77
2022/08/02 09:13:15;;;;;;;9.20;8.30;;;;;;;;;;5049795;28;20032;-77
2022/08/02 09:15:51;;;;;;;9.20;8.27;;;;;;;;;;5046413;28;20524;-77
2022/08/02 09:18:17;;;;;;;9.00;8.30;;;;;;;;;;5044834;28;20029;-77
2022/08/02 09:20:53;;;;;;;8.93;8.07;;;;;;;;;;5049881;28;20048;-77
2022/08/02 09:23:21;;;;;;;9.32;8.43;;;;;;;;;;5049898;28;20045;-77
2022/08/02 09:25:56;;;;;;;9.45;8.57;;;;;;;;;;5048364;28;20087;-77
2022/08/02 09:28:33;;;;;;;10.10;9.20;;;;;;;;;;5045217;28;20116;-78
2022/08/02 09:31:09;;;;;;;9.30;8.60;;;;;;;;;;5051367;28;20061;-78
2022/08/02 09:33:36;;;;;;;9.80;9.00;;;;;;;;;;5051040;28;20669;-79
2022/08/02 09:36:07;;;;;;;9.93;8.93;;;;;;;;;;5051210;28;20041;-78
2022/08/02 09:38:33;;;;;;;9.20;8.45;;;;;;;;;;5051927;28;20123;-78
2022/08/02 09:41:00;;;;;;;8.57;7.88;;;;;;;;;;5049464;28;20037;-78
2022/08/02 09:43:42;;;;;;;8.63;7.88;;;;;;;;;;5050794;28;20040;-78
2022/08/02 09:46:41;;;;;;;8.95;8.13;;;;;;;;;;5051558;28;20377;-77
2022/08/02 09:49:08;;;;;;;9.52;8.57;;;;;;;;;;5036079;28;20068;-77
2022/08/02 09:51:37;;;;;;;9.75;8.85;;;;;;;;;;5050892;28;20036;-77
2022/08/02 09:54:08;;;;;;;9.25;8.30;;;;;;;;;;5049865;28;20037;-76
2022/08/02 09:56:48;;;;;;;9.10;8.20;;;;;;;;;;5051169;28;20032;-77
2022/08/02 09:59:15;;;;;;;9.40;8.60;;;;;;;;;;5018043;28;20028;-78
2022/08/02 10:01:42;;;;;;;8.88;8.07;;;;;;;;;;5048709;28;20112;-78
2022/08/02 10:04:10;;;;;;;9.00;8.18;;;;;;;;;;5050655;28;20492;-78
2022/08/02 10:06:38;;;;;;;8.85;8.15;;;;;;;;;;5042523;28;20404;-78
2022/08/02 10:09:08;;;;;;;9.15;8.15;;;;;;;;;;5046486;28;20647;-78
2022/08/02 10:11:34;;;;;;;8.85;8.15;;;;;;;;;;5051131;28;20456;-78
2022/08/02 10:14:05;;;;;;;9.00;8.20;;;;;;;;;;5054513;28;20124;-79
2022/08/02 10:16:33;;;;;;;9.68;8.85;;;;;;;;;;5040722;28;20029;-78
2022/08/02 10:19:03;;;;;;;9.15;8.32;;;;;;;;;;5050829;28;20029;-78
2022/08/02 10:21:43;;;;;;;8.68;7.97;;;;;;;;;;5027353;28;20044;-78
2022/08/02 10:24:11;;;;;;;8.60;7.80;;;;;;;;;;5050638;28;20033;-78
2022/08/02 10:26:38;;;;;;;;;;;;;;;;;;5049737;28;20028;-78
2022/08/02 10:29:04;;;;;;;9.18;6.95;;;;;;;;;;5050324;28;19912;-78
2022/08/02 10:31:36;;;;;;;7.28;6.45;;;;;;;;;;5050662;28;20068;-78
2022/08/02 10:34:03;;;;;;;7.90;7.30;;;;;;;;;;5050840;28;20047;-78
2022/08/02 10:36:32;;;;;;;8.77;6.45;;;;;;;;;;5036854;28;20037;-78
2022/08/02 10:39:00;;;;;;;7.05;6.47;;;;;;;;;;5046014;28;20078;-78
2022/08/02 10:41:51;;;;;;;7.70;7.00;;;;;;;;;;5050349;28;20033;-78
2022/08/02 10:44:29;;;;;;;7.20;6.60;;;;;;;;;;5054360;28;20048;-78
2022/08/02 10:47:13;;;;;;;7.57;6.75;;;;;;;;;;5050386;28;20037;-78
2022/08/02 10:49:49;;;;;;;6.15;5.75;;;;;;;;;;5024437;28;20369;-79
2022/08/02 10:52:15;;;;;;;6.68;6.07;;;;;;;;;;5051038;28;20047;-78
2022/08/02 10:54:46;;;;;;;6.28;5.82;;;;;;;;;;5046347;28;20041;-79
2022/08/02 10:57:24;;;;;;;5.65;5.25;;;;;;;;;;5046530;28;20090;-79
2022/08/02 10:59:54;;;;;;;8.30;6.40;;;;;;;;;;5047891;28;20035;-77
2022/08/02 11:02:49;;;;;;;6.95;6.45;;;;;;;;;;5030610;28;20040;-77
2022/08/02 11:05:35;;;;;;;6.50;6.00;;;;;;;;;;4971282;28;20059;-77
2022/08/02 11:08:18;;;;;;;6.20;5.70;;;;;;;;;;4980148;28;20092;-77
2022/08/02 11:10:44;;;;;;;7.03;6.18;;;;;;;;;;4962819;28;20048;-77
2022/08/02 11:13:18;;;;;;;6.38;5.85;;;;;;;;;;4969342;28;20045;-77
2022/08/02 11:15:49;;;;;;;5.95;5.55;;;;;;;;;;4977737;28;20526;-78
2022/08/02 11:18:15;;;;;;;5.82;5.43;;;;;;;;;;4971489;28;20581;-77
2022/08/02 11:20:41;;;;;;;5.88;5.38;;;;;;;;;;4966830;28;20690;-78
2022/08/02 11:23:36;;;;;;;6.25;5.75;;;;;;;;;;4969581;28;20514;-78
2022/08/02 11:26:27;;;;;;;6.20;5.70;;;;;;;;;;4973356;28;20464;-78
2022/08/02 11:28:53;;;;;;;5.72;5.22;;;;;;;;;;4973429;28;20105;-78
2022/08/02 11:31:19;;;;;;;6.55;5.85;;;;;;;;;;4967262;28;20125;-78
2022/08/02 11:33:48;;;;;;;6.10;5.60;;;;;;;;;;4972237;28;20142;-77
2022/08/02 11:36:15;;;;;;;5.90;5.43;;;;;;;;;;4969532;28;20528;-77
2022/08/02 11:38:41;;;;;;;5.90;5.50;;;;;;;;;;4966952;28;20043;-77
2022/08/02 11:41:07;;;;;;;6.47;5.93;;;;;;;;;;4987242;28;20164;-78
2022/08/02 11:43:33;;;;;;;6.72;6.00;;;;;;;;;;5052208;28;20067;-77
2022/08/02 11:46:03;;;;;;;6.80;6.22;;;;;;;;;;5048292;28;20044;-77
2022/08/02 11:48:34;;;;;;;6.80;6.20;;;;;;;;;;5049421;28;20029;-78
2022/08/02 11:51:10;;;;;;;6.57;6.18;;;;;;;;;;5031328;28;20120;-78
2022/08/02 11:53:48;;;;;;;7.28;6.35;;;;;;;;;;5049299;28;20047;-78
2022/08/02 11:56:15;;;;;;;7.07;6.53;;;;;;;;;;5030676;28;20044;-78
2022/08/02 11:58:59;;;;;;;7.60;7.00;;;;;;;;;;5029216;28;20039;-77
2022/08/02 12:01:25;;;;;;;7.05;6.45;;;;;;;;;;5051449;28;20091;-78
2022/08/02 12:03:50;;;;;;;7.18;6.55;;;;;;;;;;5048982;28;20441;-78
2022/08/02 12:06:17;;;;;;;6.82;6.32;;;;;;;;;;5048515;28;20044;-78
2022/08/02 12:08:43;;;;;;;6.90;6.40;;;;;;;;;;5048807;28;20056;-77
2022/08/02 12:11:08;;;;;;;7.47;6.97;;;;;;;;;;5051663;28;20064;-78
2022/08/02 12:13:42;;;;;;;7.82;7.03;;;;;;;;;;5050346;28;20029;-77
2022/08/02 12:21:38;;;;;;;7.82;7.18;;;;;;;;;;5034336;28;20412;-78
2022/08/02 12:24:04;;;;;;;7.65;7.05;;;;;;;;;;5050065;28;20469;-78
2022/08/02 12:26:39;;;;;;;7.85;7.20;;;;;;;;;;5054324;28;20526;-78
2022/08/02 12:29:05;;;;;;;7.22;6.78;;;;;;;;;;5052484;28;20036;-77
2022/08/02 12:31:41;;;;;;;8.18;7.47;;;;;;;;;;5050455;28;20035;-78
2022/08/02 12:34:16;;;;;;;8.13;7.35;;;;;;;;;;5049344;28;20082;-78
2022/08/02 12:36:55;;;;;;;7.53;7.03;;;;;;;;;;5052577;28;20041;-78
2022/08/02 12:39:42;;;;;;;8.13;7.57;;;;;;;;;;5033807;28;20029;-78
2022/08/02 12:42:10;;;;;;;8.27;7.47;;;;;;;;;;5037844;28;20408;-78
2022/08/02 12:44:57;;;;;;;7.45;7.05;;;;;;;;;;5035416;28;20037;-78
2022/08/02 12:47:23;;;;;;;8.13;7.57;;;;;;;;;;5050000;28;20568;-78
2022/08/02 12:50:15;;;;;;;8.27;7.55;;;;;;;;;;5051307;28;20320;-78
2022/08/02 12:52:41;;;;;;;7.82;7.22;;;;;;;;;;5053527;28;20036;-78
2022/08/02 12:55:18;;;;;;;7.65;7.15;;;;;;;;;;5035016;28;20044;-79
2022/08/02 12:58:02;;;;;;;8.30;7.53;;;;;;;;;;5046302;28;20793;-79
2022/08/02 13:00:30;;;;;;;7.75;7.05;;;;;;;;;;5035548;28;20055;-79
2022/08/02 13:02:57;;;;;;;;;;;;;;;;;;5053591;28;20648;-79
2022/08/02 13:05:23;;;;;;;8.07;7.47;;;;;;;;;;5065595;28;19912;-78
2022/08/02 13:07:48;;;;;;;8.45;7.85;;;;;;;;;;5052658;28;20033;-78
2022/08/02 13:10:14;;;;;;;7.80;7.20;;;;;;;;;;5051865;28;20043;-78
2022/08/02 13:12:40;;;;;;;7.30;6.80;;;;;;;;;;5057045;28;20485;-79
2022/08/02 13:15:07;;;;;;;7.82;7.10;;;;;;;;;;5034600;28;20037;-78
2022/08/02 13:17:33;;;;;;;7.30;6.72;;;;;;;;;;5052088;28;20087;-79
2022/08/02 13:19:58;;;;;;;8.13;7.25;;;;;;;;;;5016349;28;20032;-78
2022/08/02 13:22:24;;;;;;;7.68;7.07;;;;;;;;;;5052445;28;20040;-78
2022/08/02 13:24:50;;;;;;;7.63;7.13;;;;;;;;;;5053105;28;20047;-79
2022/08/02 13:27:17;;;;;;;7.97;7.15;;;;;;;;;;5051034;28;20407;-79
2022/08/02 13:29:42;;;;;;;8.35;7.50;;;;;;;;;;5040299;28;20040;-78
2022/08/02 13:32:08;;;;;;;10.30;7.25;;;;;;;;;;5052834;28;20036;-78
2022/08/02 13:34:34;;;;;;;8.02;7.40;;;;;;;;;;5035397;28;20034;-79
2022/08/02 13:37:01;;;;;;;8.02;7.45;;;;;;;;;;5049530;28;20029;-79
2022/08/02 13:39:26;;;;;;;7.63;7.22;;;;;;;;;;5054459;28;20036;-79
2022/08/02 13:41:52;;;;;;;8.10;7.50;;;;;;;;;;5057197;28;20036;-79
2022/08/02 13:44:18;;;;;;;7.75;7.15;;;;;;;;;;5036891;28;20056;-79
2022/08/02 13:46:44;;;;;;;7.97;7.47;;;;;;;;;;5054540;28;20493;-78
2022/08/02 13:49:09;;;;;;;7.63;7.13;;;;;;;;;;5054736;28;20051;-78
2022/08/02 13:51:35;;;;;;;8.00;7.30;;;;;;;;;;5035734;28;20658;-78
2022/08/02 13:54:00;;;;;;;7.78;7.20;;;;;;;;;;5045411;28;20037;-78
2022/08/02 13:56:26;;;;;;;7.80;7.30;;;;;;;;;;5051492;28;20067;-78
2022/08/02 13:58:52;;;;;;;7.90;7.20;;;;;;;;;;5034118;28;20033;-79
2022/08/02 14:01:17;;;;;;;7.80;7.20;;;;;;;;;;5052460;28;20115;-78
2022/08/02 14:03:43;;;;;;;7.60;7.00;;;;;;;;;;5058607;28;20042;-78
2022/08/02 14:06:09;;;;;;;8.05;7.43;;;;;;;;;;5043614;28;20060;-78
2022/08/02 14:08:35;;;;;;;7.65;7.13;;;;;;;;;;5065462;28;20048;-78
2022/08/02 14:11:01;;;;;;;7.80;7.30;;;;;;;;;;5048739;28;20401;-78
2022/08/02 14:13:26;;;;;;;7.57;7.10;;;;;;;;;;5052339;28;20743;-78
2022/08/02 14:15:52;;;;;;;7.97;7.45;;;;;;;;;;5046866;28;20037;-78
2022/08/02 14:18:17;;;;;;;6.88;6.47;;;;;;;;;;5039814;28;20051;-78
2022/08/02 14:20:44;;;;;;;7.88;7.10;;;;;;;;;;5047146;28;20419;-78
2022/08/02 14:23:09;;;;;;;7.60;7.10;;;;;;;;;;5051146;28;20032;-78
2022/08/02 14:25:35;;;;;;;7.50;7.00;;;;;;;;;;5050699;28;20031;-78
2022/08/02 14:28:03;;;;;;;7.35;6.90;;;;;;;;;;5039079;28;20549;-78
2022/08/02 14:30:29;;;;;;;7.47;6.97;;;;;;;;;;5050480;28;20174;-77
2022/08/02 14:32:54;;;;;;;7.72;7.13;;;;;;;;;;5050096;28;20068;-77
2022/08/02 14:35:20;;;;;;;7.60;7.00;;;;;;;;;;5050634;28;20041;-78
2022/08/02 14:37:45;;;;;;;8.02;7.53;;;;;;;;;;5052825;28;20037;-78
2022/08/02 14:40:12;;;;;;;7.60;7.00;;;;;;;;;;5030816;28;20088;-78
2022/08/02 14:42:38;;;;;;;7.63;7.10;;;;;;;;;;5050412;28;20490;-78
2022/08/02 14:45:05;;;;;;;7.82;7.30;;;;;;;;;;5032592;28;20400;-78
2022/08/02 14:47:30;;;;;;;8.15;7.60;;;;;;;;;;5050531;28;20033;-78